createdAt,value
2023-03-30T00:00:59.351Z,23.10
2023-03-30T00:04:02.806Z,23.10
2023-03-30T00:07:05.658Z,22.90
2023-03-30T00:10:09.272Z,23.30
2023-03-30T00:13:13.154Z,23.10
2023-03-30T00:16:15.239Z,23.20
2023-03-30T00:19:17.820Z,23.00
2023-03-30T00:22:19.882Z,23.20
2023-03-30T00:25:23.301Z,23.20
2023-03-30T00:28:26.336Z,23.30
2023-03-30T00:31:28.777Z,23.00
2023-03-30T00:34:31.164Z,23.10
2023-03-30T00:37:37.348Z,23.10
2023-03-30T00:40:39.387Z,23.60
2023-03-30T00:44:00.811Z,23.60
2023-03-30T00:47:03.206Z,23.90
2023-03-30T00:50:08.023Z,24.10
2023-03-30T00:53:17.347Z,24.10
2023-03-30T00:56:27.181Z,24.20
2023-03-30T00:59:29.231Z,24.40
2023-03-30T01:02:33.481Z,24.30
2023-03-30T01:05:38.339Z,24.40
2023-03-30T01:08:42.565Z,24.40
2023-03-30T01:11:44.832Z,24.30
2023-03-30T01:14:48.205Z,24.30
2023-03-30T01:18:08.780Z,24.30
2023-03-30T01:21:24.619Z,24.50
2023-03-30T01:24:49.048Z,24.30
2023-03-30T01:28:23.674Z,24.20
2023-03-30T01:32:12.954Z,24.30
2023-03-30T01:35:39.406Z,24.30
2023-03-30T01:39:16.094Z,24.40
2023-03-30T01:42:30.348Z,24.30
2023-03-30T01:45:52.414Z,24.20
2023-03-30T01:49:32.047Z,24.60
2023-03-30T01:52:50.465Z,24.40
2023-03-30T01:56:01.932Z,24.70
2023-03-30T01:59:29.306Z,24.90
2023-03-30T02:02:32.941Z,24.90
2023-03-30T02:05:36.163Z,24.90
2023-03-30T02:08:41.124Z,25.10
2023-03-30T02:11:47.758Z,25.20
2023-03-30T02:14:51.435Z,25.00
2023-03-30T02:17:53.537Z,25.00
2023-03-30T02:20:58.940Z,25.20
2023-03-30T02:24:03.821Z,24.90
2023-03-30T02:27:06.541Z,25.00
2023-03-30T02:30:10.094Z,25.00
2023-03-30T02:33:32.543Z,24.90
2023-03-30T02:36:49.931Z,24.90
2023-03-30T02:40:13.466Z,25.00
2023-03-30T02:43:44.441Z,25.00
2023-03-30T02:47:14.581Z,25.10
2023-03-30T02:50:45.608Z,25.00
2023-03-30T02:53:56.726Z,25.00
2023-03-30T02:57:17.430Z,25.30
2023-03-30T03:00:27.872Z,25.20
2023-03-30T03:03:46.273Z,25.30
2023-03-30T03:06:52.896Z,25.50
2023-03-30T03:09:54.950Z,25.50
2023-03-30T03:12:57.423Z,25.50
2023-03-30T03:16:03.568Z,25.70
2023-03-30T03:19:06.506Z,25.80
2023-03-30T03:22:08.498Z,25.80
2023-03-30T03:25:11.743Z,25.90
2023-03-30T03:28:13.864Z,26.00
2023-03-30T03:31:16.246Z,26.00
2023-03-30T03:34:18.361Z,26.10
2023-03-30T03:37:20.884Z,26.10
2023-03-30T03:40:23.073Z,26.10
2023-03-30T03:43:26.077Z,26.20
2023-03-30T03:46:28.404Z,26.30
2023-03-30T03:49:30.710Z,26.30
2023-03-30T03:52:32.985Z,26.20
2023-03-30T03:55:35.380Z,26.30
2023-03-30T03:58:37.448Z,26.30
2023-03-30T04:01:39.747Z,26.40
2023-03-30T04:04:42.066Z,26.30
2023-03-30T04:07:46.359Z,26.30
2023-03-30T04:10:48.535Z,26.40
2023-03-30T04:13:51.065Z,26.40
2023-03-30T04:16:53.099Z,26.40
2023-03-30T04:19:56.464Z,26.60
2023-03-30T04:23:01.650Z,26.50
2023-03-30T04:26:06.034Z,26.50
2023-03-30T04:29:08.912Z,26.60
2023-03-30T04:32:14.327Z,26.60
2023-03-30T04:35:16.636Z,26.70
2023-03-30T04:38:22.596Z,26.80
2023-03-30T04:41:29.930Z,26.80
2023-03-30T04:44:32.454Z,26.80
2023-03-30T04:47:35.407Z,26.80
2023-03-30T04:50:37.997Z,26.70
2023-03-30T04:53:40.054Z,26.90
2023-03-30T04:56:42.431Z,26.90
2023-03-30T04:59:45.418Z,26.80
2023-03-30T05:02:47.952Z,26.80
2023-03-30T05:05:50.078Z,26.80
2023-03-30T05:08:52.765Z,26.80
2023-03-30T05:11:54.947Z,26.80
2023-03-30T05:14:57.273Z,26.80
2023-03-30T05:18:00.043Z,26.90
2023-03-30T05:21:02.560Z,26.90
2023-03-30T05:24:05.225Z,27.00
2023-03-30T05:27:07.994Z,27.00
2023-03-30T05:30:10.634Z,27.00
2023-03-30T05:33:13.025Z,27.00
2023-03-30T05:36:15.842Z,27.10
2023-03-30T05:39:20.492Z,27.10
2023-03-30T05:42:22.629Z,27.10
2023-03-30T05:45:24.921Z,27.20
2023-03-30T05:48:26.933Z,27.10
2023-03-30T05:51:29.202Z,27.10
2023-03-30T05:54:32.918Z,27.20
2023-03-30T05:57:35.534Z,27.10
2023-03-30T06:00:37.654Z,27.40
2023-03-30T06:03:40.394Z,27.40
2023-03-30T06:06:42.687Z,27.70
2023-03-30T06:09:45.005Z,27.60
2023-03-30T06:12:46.980Z,27.70
2023-03-30T06:15:49.710Z,27.60
2023-03-30T06:18:52.175Z,27.90
2023-03-30T06:21:54.579Z,27.90
2023-03-30T06:24:56.763Z,28.00
2023-03-30T06:27:59.143Z,28.00
2023-03-30T06:31:03.176Z,28.10
2023-03-30T06:34:05.858Z,28.10
2023-03-30T06:37:08.976Z,28.30
2023-03-30T06:40:13.423Z,28.10
2023-03-30T06:43:18.337Z,28.10
2023-03-30T06:46:20.719Z,27.90
2023-03-30T06:49:22.847Z,27.80
2023-03-30T06:52:25.276Z,27.70
2023-03-30T06:55:27.374Z,27.50
2023-03-30T06:58:31.265Z,27.40
2023-03-30T07:01:33.657Z,27.40
2023-03-30T07:04:36.085Z,27.50
2023-03-30T07:07:38.272Z,27.70
2023-03-30T07:10:40.917Z,27.90
2023-03-30T07:13:43.022Z,28.00
2023-03-30T07:16:45.737Z,28.30
2023-03-30T07:19:47.737Z,28.40
2023-03-30T07:22:50.006Z,28.40
2023-03-30T07:25:53.076Z,28.50
2023-03-30T07:28:56.530Z,28.50
2023-03-30T07:31:58.571Z,28.60
2023-03-30T07:35:01.550Z,28.60
2023-03-30T07:38:04.139Z,28.60
2023-03-30T07:41:12.324Z,28.40
2023-03-30T07:44:14.407Z,28.60
2023-03-30T07:47:16.921Z,28.50
2023-03-30T07:50:19.851Z,28.30
2023-03-30T07:53:48.731Z,28.30
2023-03-30T07:56:52.852Z,28.70
2023-03-30T07:59:55.801Z,28.50
2023-03-30T08:02:58.115Z,28.60
2023-03-30T08:06:06.923Z,28.60
2023-03-30T08:09:09.280Z,28.50
2023-03-30T08:12:11.855Z,28.40
2023-03-30T08:15:13.873Z,28.30
2023-03-30T08:18:16.887Z,28.10
2023-03-30T08:21:19.468Z,28.10
2023-03-30T08:24:21.819Z,27.80
2023-03-30T08:27:23.988Z,27.60
2023-03-30T08:30:26.390Z,27.50
2023-03-30T08:33:28.454Z,27.50
2023-03-30T08:36:31.727Z,27.30
2023-03-30T08:39:33.739Z,27.10
2023-03-30T08:42:43.306Z,27.10
2023-03-30T08:45:45.575Z,27.10
2023-03-30T08:48:50.822Z,27.00
2023-03-30T08:51:55.327Z,27.10
2023-03-30T08:54:58.129Z,27.20
2023-03-30T08:58:14.769Z,27.10
2023-03-30T09:01:31.896Z,27.20
2023-03-30T09:04:57.768Z,27.00
2023-03-30T09:08:00.345Z,27.10
2023-03-30T09:11:11.591Z,27.20
2023-03-30T09:14:36.370Z,27.10
2023-03-30T09:17:54.228Z,27.30
2023-03-30T09:20:59.661Z,27.80
2023-03-30T09:24:12.229Z,27.50
2023-03-30T09:27:28.883Z,26.60
2023-03-30T09:30:43.662Z,26.30
2023-03-30T09:33:54.041Z,27.00
2023-03-30T09:37:25.844Z,26.40
2023-03-30T09:40:37.405Z,26.30
2023-03-30T09:43:46.414Z,25.90
2023-03-30T09:46:51.507Z,26.50
2023-03-30T09:50:01.661Z,26.40
2023-03-30T09:53:25.301Z,26.70
2023-03-30T09:56:45.211Z,26.60
2023-03-30T09:59:47.587Z,27.10
2023-03-30T10:03:01.066Z,26.80
2023-03-30T10:06:12.951Z,26.90
2023-03-30T10:09:24.203Z,26.80
2023-03-30T10:12:27.357Z,26.50
2023-03-30T10:15:32.903Z,26.40
2023-03-30T10:18:41.481Z,26.30
2023-03-30T10:21:46.843Z,26.70
2023-03-30T10:24:55.416Z,26.60
2023-03-30T10:28:02.902Z,26.60
2023-03-30T10:31:13.947Z,26.60
2023-03-30T10:34:20.795Z,26.40
2023-03-30T10:37:37.191Z,26.30
2023-03-30T10:40:42.796Z,26.30
2023-03-30T10:43:45.486Z,26.80
2023-03-30T10:46:50.373Z,26.70
2023-03-30T10:50:04.461Z,26.60
2023-03-30T10:53:31.773Z,26.40
2023-03-30T10:56:57.186Z,26.10
2023-03-30T11:00:23.658Z,26.00
2023-03-30T11:03:32.615Z,25.70
2023-03-30T11:06:39.781Z,25.20
2023-03-30T11:09:49.987Z,25.10
2023-03-30T11:13:07.337Z,25.00
2023-03-30T11:16:35.113Z,25.10
2023-03-30T11:19:43.204Z,24.90
2023-03-30T11:22:50.487Z,25.10
2023-03-30T11:26:02.446Z,25.20
2023-03-30T11:29:42.163Z,25.70
2023-03-30T11:32:52.961Z,25.70
2023-03-30T11:36:05.384Z,25.90
2023-03-30T11:39:28.876Z,25.90
2023-03-30T11:42:36.429Z,26.40
2023-03-30T11:45:56.590Z,26.40
2023-03-30T11:49:17.959Z,26.60
2023-03-30T11:52:31.080Z,26.60
2023-03-30T11:55:57.816Z,26.70
2023-03-30T11:59:17.841Z,27.30
2023-03-30T12:02:28.980Z,27.50
2023-03-30T12:05:40.681Z,27.40
2023-03-30T12:08:49.136Z,27.50
2023-03-30T12:12:16.006Z,27.60
2023-03-30T12:15:42.165Z,27.50
2023-03-30T12:19:12.522Z,27.50
2023-03-30T12:33:20.739Z,27.20
2023-03-30T12:44:09.127Z,26.80
2023-03-30T12:47:49.005Z,26.50
2023-03-30T12:51:30.882Z,26.40
2023-03-30T12:59:17.055Z,26.30
2023-03-30T13:03:12.605Z,26.60
2023-03-30T13:06:24.913Z,26.60
2023-03-30T13:14:57.430Z,26.50
2023-03-30T13:22:15.777Z,26.10
2023-03-30T13:30:35.508Z,26.30
2023-03-30T13:33:43.053Z,26.10
2023-03-30T13:37:47.835Z,26.40
2023-03-30T13:41:05.938Z,26.30
2023-03-30T13:44:54.945Z,26.30
2023-03-30T13:49:09.473Z,26.60
2023-03-30T13:52:42.837Z,26.60
2023-03-30T13:56:10.619Z,26.40
2023-03-30T13:59:17.273Z,26.60
2023-03-30T14:07:25.669Z,26.90
2023-03-30T14:10:29.261Z,26.60
2023-03-30T14:13:31.646Z,27.00
2023-03-30T14:16:39.069Z,27.40
2023-03-30T14:24:20.146Z,27.20
2023-03-30T14:27:22.144Z,27.10
2023-03-30T14:30:29.234Z,27.20
2023-03-30T14:33:33.003Z,27.10
2023-03-30T14:36:36.016Z,26.90
2023-03-30T14:39:48.403Z,26.70
2023-03-30T14:42:51.601Z,27.70
2023-03-30T14:45:57.781Z,27.30
2023-03-30T14:49:00.188Z,27.20
2023-03-30T14:52:15.153Z,27.50
2023-03-30T14:55:24.278Z,27.80
2023-03-30T14:58:29.910Z,27.80
2023-03-30T15:01:33.611Z,27.10
2023-03-30T15:04:38.477Z,26.80
2023-03-30T15:16:26.784Z,27.50
2023-03-30T15:34:37.900Z,27.90
2023-03-30T15:38:35.240Z,28.00
2023-03-30T15:42:01.512Z,27.80
2023-03-30T16:09:16.974Z,29.30
2023-03-30T16:12:31.144Z,28.70
2023-03-30T16:15:33.714Z,28.80
2023-03-30T16:18:35.987Z,28.50
2023-03-30T16:21:38.050Z,28.50
2023-03-30T16:24:42.104Z,28.80
2023-03-30T16:27:46.023Z,29.00
2023-03-30T16:32:05.307Z,29.20
2023-03-30T16:35:58.221Z,29.70
2023-03-30T16:39:01.216Z,29.00
2023-03-30T16:46:33.850Z,30.00
2023-03-30T16:49:35.974Z,29.60
2023-03-30T16:52:38.212Z,29.60
2023-03-30T16:55:40.774Z,29.70
2023-03-30T16:58:43.151Z,29.80
2023-03-30T17:01:45.394Z,29.70
2023-03-30T17:04:47.690Z,29.30
2023-03-30T17:07:53.253Z,29.10
2023-03-30T17:11:03.846Z,29.10
2023-03-30T17:14:06.173Z,29.10
2023-03-30T17:17:08.477Z,29.40
2023-03-30T17:20:16.917Z,29.50
2023-03-30T17:23:25.624Z,29.10
2023-03-30T17:26:28.603Z,28.90
2023-03-30T17:29:30.990Z,28.50
2023-03-30T17:32:33.020Z,28.60
2023-03-30T17:35:35.327Z,28.60
2023-03-30T17:38:37.924Z,28.50
2023-03-30T17:41:41.229Z,28.50
2023-03-30T17:44:43.246Z,29.20
2023-03-30T17:47:46.404Z,29.60
2023-03-30T17:50:50.396Z,29.30
2023-03-30T17:53:52.680Z,29.00
2023-03-30T17:56:54.826Z,28.90
2023-03-30T17:59:57.113Z,28.90
2023-03-30T18:03:00.357Z,29.10
2023-03-30T18:06:12.775Z,29.10
2023-03-30T18:09:18.106Z,29.40
2023-03-30T18:12:20.706Z,29.50
2023-03-30T18:15:25.596Z,29.70
2023-03-30T18:18:30.959Z,29.80
2023-03-30T18:21:33.726Z,29.60
2023-03-30T18:24:36.073Z,29.60
2023-03-30T18:27:39.383Z,29.40
2023-03-30T18:30:41.761Z,29.30
2023-03-30T18:33:43.771Z,29.30
2023-03-30T18:36:46.125Z,29.30
2023-03-30T18:39:51.260Z,29.30
2023-03-30T18:42:54.265Z,29.30
2023-03-30T18:46:02.759Z,29.40
2023-03-30T18:49:20.907Z,29.50
2023-03-30T18:52:23.173Z,29.60
2023-03-30T18:55:26.211Z,29.70
2023-03-30T18:58:43.138Z,29.80
2023-03-30T19:05:18.350Z,30.00
2023-03-30T19:08:25.391Z,30.00
2023-03-30T19:11:27.905Z,30.00
2023-03-30T19:14:32.021Z,30.10
2023-03-30T19:17:34.562Z,30.30
2023-03-30T19:20:41.465Z,30.50
2023-03-30T19:23:43.852Z,30.50
2023-03-30T19:27:08.349Z,30.50
2023-03-30T19:30:14.132Z,30.20
2023-03-30T19:33:40.495Z,30.50
2023-03-30T19:37:33.281Z,30.40
2023-03-30T19:41:04.648Z,30.20
2023-03-30T19:44:07.236Z,30.10
2023-03-30T19:47:10.406Z,30.30
2023-03-30T19:50:32.927Z,30.40
2023-03-30T19:53:36.000Z,30.10
2023-03-30T19:56:43.331Z,30.10
2023-03-30T19:59:47.293Z,30.00
2023-03-30T20:03:34.444Z,29.90
2023-03-30T20:06:37.442Z,30.00
2023-03-30T20:10:30.453Z,30.20
2023-03-30T20:13:32.737Z,30.20
2023-03-30T20:16:35.582Z,30.60
2023-03-30T20:19:40.933Z,30.50
2023-03-30T20:22:44.224Z,30.70
2023-03-30T20:25:49.311Z,31.30
2023-03-30T20:28:51.612Z,30.80
2023-03-30T20:31:53.937Z,31.60
2023-03-30T20:34:55.989Z,30.80
2023-03-30T20:37:58.382Z,30.90
2023-03-30T20:41:03.594Z,31.00
2023-03-30T20:44:13.553Z,30.70
2023-03-30T20:47:17.730Z,30.30
2023-03-30T20:50:20.366Z,30.50
2023-03-30T20:53:23.039Z,30.50
2023-03-30T20:56:28.714Z,30.20
2023-03-30T20:59:31.539Z,30.90
2023-03-30T21:02:34.528Z,30.80
2023-03-30T21:05:37.293Z,30.80
2023-03-30T21:08:40.435Z,32.10
2023-03-30T21:11:42.631Z,31.30
2023-03-30T21:14:45.927Z,30.80
2023-03-30T21:17:47.956Z,30.50
2023-03-30T21:20:50.372Z,30.30
2023-03-30T21:23:52.491Z,30.00
2023-03-30T21:26:54.933Z,29.80
2023-03-30T21:29:56.920Z,29.90
2023-03-30T21:32:59.309Z,29.80
2023-03-30T21:36:01.823Z,30.00
2023-03-30T21:39:04.345Z,30.00
2023-03-30T21:42:06.421Z,30.10
2023-03-30T21:45:11.731Z,30.10
2023-03-30T21:48:14.853Z,30.00
2023-03-30T21:51:22.975Z,30.00
2023-03-30T21:54:25.068Z,30.20
2023-03-30T21:57:30.104Z,30.50
2023-03-30T22:00:32.134Z,30.40
2023-03-30T22:03:34.542Z,30.20
2023-03-30T22:06:36.725Z,30.40
2023-03-30T22:09:39.070Z,30.10
2023-03-30T22:12:41.446Z,30.40
2023-03-30T22:15:43.741Z,30.40
2023-03-30T22:18:46.561Z,30.20
2023-03-30T22:21:49.728Z,30.00
2023-03-30T22:24:51.682Z,30.10
2023-03-30T22:27:55.271Z,30.00
2023-03-30T22:30:57.292Z,31.30
2023-03-30T22:34:00.042Z,31.20
2023-03-30T22:37:02.516Z,30.70
2023-03-30T22:40:06.391Z,30.90
2023-03-30T22:43:09.585Z,30.50
2023-03-30T22:46:12.061Z,30.30
2023-03-30T22:49:14.239Z,30.20
2023-03-30T22:52:16.549Z,30.10
2023-03-30T22:55:19.164Z,29.90
2023-03-30T22:58:21.442Z,29.80
2023-03-30T23:01:23.837Z,29.80
2023-03-30T23:04:28.008Z,29.90
2023-03-30T23:07:31.347Z,29.80
2023-03-30T23:10:34.066Z,29.70
2023-03-30T23:13:42.049Z,29.80
2023-03-30T23:16:46.207Z,29.60
2023-03-30T23:19:49.996Z,29.50
2023-03-30T23:22:52.626Z,29.60
2023-03-30T23:25:54.627Z,29.40
2023-03-30T23:28:57.442Z,29.60
2023-03-30T23:31:59.507Z,29.70
2023-03-30T23:35:05.248Z,29.70
2023-03-30T23:38:10.150Z,29.80
2023-03-30T23:41:18.158Z,29.70
2023-03-30T23:44:20.561Z,29.80
2023-03-30T23:47:22.883Z,29.60
2023-03-30T23:50:27.055Z,29.80
2023-03-30T23:53:32.721Z,29.80
2023-03-30T23:56:36.212Z,29.80
2023-03-30T23:59:38.582Z,29.90
